»·PEaware :: N32PW KAPA-KTEX

N32PW :: KAPA-KTEX

FLIGHT INFORMATION

Flight Status: Arrived
Operator: Privately registered:
United States
More flights under this callsign
Pilot: Jason D. (200)
Aircraft: Cessna 525C Citation CJ4
(C25C)
More flights by this aircraft type
Origin: KAPA Centennial
United States
Destination: KTEX Telluride Regl
United States
More flights between these airports :: More routes between these airports
Route: WNGSS1 TEHRU ETL
File this flight plan on PilotEdge
Remarks:
Altitude:
(Current/Filed)
40,000ft
Speed:
(Current/Filed)
443kts
Departed: 22-Oct-23 04:31 PM
Arrived: 22-Oct-23 05:20 PM
Distance/Time
Traveled:
173nm/0:49
Distance/Time
To Go:
Arrived

Flight Plot

Page will automatically refresh every two minutes.

Flight plan parsing failed; only flown route is shown


Map Options




Map Legend


Flown Route
Filed Route
Departure Airport
Arrival Airport
Navaid (VOR, NDB)
Fix

Horizontal Profiles

Position Reports

Time Latitude Longitude Heading Altitude Ground
Speed
22-Oct-23 16:18 39.568658 -104.848642 77 5847ft 0kts
22-Oct-23 16:19 39.568658 -104.848642 77 5847ft 0kts
22-Oct-23 16:20 39.568658 -104.848642 77 5847ft 0kts
22-Oct-23 16:21 39.568658 -104.848642 77 5847ft 0kts
22-Oct-23 16:22 39.568658 -104.848642 77 5847ft 0kts
22-Oct-23 16:23 39.568658 -104.848642 77 5847ft 0kts
22-Oct-23 16:24 39.568658 -104.848642 77 5847ft 0kts
22-Oct-23 16:25 39.568658 -104.848642 77 5847ft 0kts
22-Oct-23 16:26 39.568658 -104.848642 77 5847ft 0kts
22-Oct-23 16:27 39.568658 -104.848642 77 5847ft 0kts
22-Oct-23 16:28 39.568658 -104.848642 77 5847ft 0kts
22-Oct-23 16:29 39.571378 -104.849255 298 5840ft 14kts
22-Oct-23 16:30 39.579792 -104.849858 358 5804ft 45kts
22-Oct-23 16:31 39.584102 -104.850256 284 5798ft 0kts
22-Oct-23 16:32 39.575884 -104.851079 178 5841ft 138kts
22-Oct-23 16:33 39.517617 -104.842646 171 8014ft 264kts
22-Oct-23 16:34 39.441958 -104.832877 177 10660ft 282kts
22-Oct-23 16:35 39.384014 -104.878297 272 14338ft 287kts
22-Oct-23 16:36 39.428906 -104.966460 314 17637ft 309kts
22-Oct-23 16:37 39.503734 -105.025859 306 20824ft 314kts
22-Oct-23 16:38 39.506629 -105.134796 257 23960ft 319kts
22-Oct-23 16:39 39.488566 -105.248585 259 26635ft 328kts
22-Oct-23 16:40 39.469718 -105.365540 259 29286ft 332kts
22-Oct-23 16:41 39.451082 -105.481055 258 31948ft 323kts
22-Oct-23 16:42 39.432738 -105.593426 258 34374ft 314kts
22-Oct-23 16:43 39.414978 -105.701808 257 36405ft 302kts
22-Oct-23 16:44 39.397791 -105.806084 256 38430ft 291kts
22-Oct-23 16:45 39.380905 -105.907820 256 39735ft 287kts
22-Oct-23 16:46 39.363217 -106.013605 257 39972ft 314kts
22-Oct-23 16:47 39.344254 -106.126940 256 40069ft 326kts
22-Oct-23 16:48 39.324436 -106.244293 256 40151ft 342kts
22-Oct-23 16:49 39.303756 -106.365859 256 40182ft 350kts
22-Oct-23 16:50 39.282606 -106.489498 256 40113ft 356kts
22-Oct-23 16:51 39.260895 -106.615489 256 39982ft 362kts
22-Oct-23 16:52 39.222920 -106.735104 239 40062ft 365kts
22-Oct-23 16:53 39.155501 -106.834793 229 40066ft 372kts
22-Oct-23 16:54 39.082957 -106.929553 229 40022ft 372kts
22-Oct-23 16:55 39.010253 -107.024169 229 39095ft 374kts
22-Oct-23 16:56 38.937577 -107.118387 228 37015ft 366kts
22-Oct-23 16:57 38.864708 -107.212567 228 35051ft 379kts
22-Oct-23 16:58 38.788917 -107.310246 227 32978ft 391kts
22-Oct-23 16:59 38.711656 -107.409431 227 30906ft 398kts
22-Oct-23 17:00 38.632880 -107.510356 227 28761ft 402kts
22-Oct-23 17:01 38.553616 -107.611492 227 26680ft 402kts
22-Oct-23 17:02 38.474016 -107.712700 226 24588ft 407kts
22-Oct-23 17:03 38.395307 -107.812402 226 22444ft 386kts
22-Oct-23 17:04 38.320539 -107.906934 225 20420ft 374kts
22-Oct-23 17:05 38.247239 -107.999300 224 18439ft 368kts
22-Oct-23 17:06 38.175061 -108.089988 224 16413ft 364kts
22-Oct-23 17:07 38.103271 -108.179886 223 14483ft 359kts
22-Oct-23 17:08 38.033891 -108.267349 229 12803ft 335kts
22-Oct-23 17:09 38.029445 -108.373180 290 12692ft 308kts
22-Oct-23 17:10 38.065042 -108.472996 295 12668ft 313kts
22-Oct-23 17:11 38.142409 -108.515084 11 12662ft 330kts
22-Oct-23 17:12 38.198120 -108.433218 88 12660ft 320kts
22-Oct-23 17:13 38.157341 -108.343699 156 12672ft 302kts
22-Oct-23 17:14 38.078958 -108.305686 160 12722ft 301kts
22-Oct-23 17:15 38.028651 -108.222504 112 12819ft 314kts
22-Oct-23 17:16 37.997648 -108.118675 108 12730ft 316kts
22-Oct-23 17:17 37.976825 -108.018302 107 11007ft 269kts
22-Oct-23 17:18 37.960239 -107.939212 105 9503ft 164kts
22-Oct-23 17:19 37.952451 -107.902217 104 9038ft 39kts
22-Oct-23 17:20 37.953823 -107.903317 313 9052ft 6kts

Navigation Log

Ident Type
Flight plan parsing failed, navigation log unavailable